sensor_id;sensor_type;location;lat;lon;timestamp;temperature;humidity
68433;DHT22;55412;51.350;17.056;2023-02-13T00:02:20;5.70;98.90
68433;DHT22;55412;51.350;17.056;2023-02-13T00:04:46;5.70;99.20
68433;DHT22;55412;51.350;17.056;2023-02-13T00:07:12;5.70;99.00
68433;DHT22;55412;51.350;17.056;2023-02-13T00:09:38;5.60;99.20
68433;DHT22;55412;51.350;17.056;2023-02-13T00:12:06;5.60;99.00
68433;DHT22;55412;51.350;17.056;2023-02-13T00:14:37;5.60;99.10
68433;DHT22;55412;51.350;17.056;2023-02-13T00:17:04;5.60;99.20
68433;DHT22;55412;51.350;17.056;2023-02-13T00:19:31;5.60;99.10
68433;DHT22;55412;51.350;17.056;2023-02-13T00:21:57;5.60;98.80
68433;DHT22;55412;51.350;17.056;2023-02-13T00:24:23;5.50;98.80
68433;DHT22;55412;51.350;17.056;2023-02-13T00:26:49;5.50;98.50
68433;DHT22;55412;51.350;17.056;2023-02-13T00:29:15;5.50;98.00
68433;DHT22;55412;51.350;17.056;2023-02-13T00:31:41;5.50;97.80
68433;DHT22;55412;51.350;17.056;2023-02-13T00:34:08;5.40;97.70
68433;DHT22;55412;51.350;17.056;2023-02-13T00:36:34;5.40;97.60
68433;DHT22;55412;51.350;17.056;2023-02-13T00:39:00;5.40;97.70
68433;DHT22;55412;51.350;17.056;2023-02-13T00:41:27;5.40;97.40
68433;DHT22;55412;51.350;17.056;2023-02-13T00:43:53;5.40;97.30
68433;DHT22;55412;51.350;17.056;2023-02-13T00:46:19;5.40;97.40
68433;DHT22;55412;51.350;17.056;2023-02-13T00:48:45;5.50;97.60
68433;DHT22;55412;51.350;17.056;2023-02-13T00:51:11;5.50;97.40
68433;DHT22;55412;51.350;17.056;2023-02-13T00:53:38;5.50;97.20
68433;DHT22;55412;51.350;17.056;2023-02-13T00:56:05;5.50;97.10
68433;DHT22;55412;51.350;17.056;2023-02-13T00:58:32;5.60;96.80
68433;DHT22;55412;51.350;17.056;2023-02-13T01:00:58;5.60;96.80
68433;DHT22;55412;51.350;17.056;2023-02-13T01:03:25;5.60;96.60
68433;DHT22;55412;51.350;17.056;2023-02-13T01:05:52;5.60;96.50
68433;DHT22;55412;51.350;17.056;2023-02-13T01:08:19;5.60;96.50
68433;DHT22;55412;51.350;17.056;2023-02-13T01:10:47;5.70;96.50
68433;DHT22;55412;51.350;17.056;2023-02-13T01:13:14;5.70;96.20
68433;DHT22;55412;51.350;17.056;2023-02-13T01:15:44;5.70;96.40
68433;DHT22;55412;51.350;17.056;2023-02-13T01:18:15;5.70;96.30
68433;DHT22;55412;51.350;17.056;2023-02-13T01:20:43;5.70;96.70
68433;DHT22;55412;51.350;17.056;2023-02-13T01:23:10;5.70;96.80
68433;DHT22;55412;51.350;17.056;2023-02-13T01:25:41;5.70;96.90
68433;DHT22;55412;51.350;17.056;2023-02-13T01:28:08;5.80;97.00
68433;DHT22;55412;51.350;17.056;2023-02-13T01:30:35;5.70;96.90
68433;DHT22;55412;51.350;17.056;2023-02-13T01:33:01;5.70;97.40
68433;DHT22;55412;51.350;17.056;2023-02-13T01:35:27;5.70;98.00
68433;DHT22;55412;51.350;17.056;2023-02-13T01:37:53;5.70;98.00
68433;DHT22;55412;51.350;17.056;2023-02-13T01:40:19;5.60;98.40
68433;DHT22;55412;51.350;17.056;2023-02-13T01:42:45;5.70;98.70
68433;DHT22;55412;51.350;17.056;2023-02-13T01:45:27;5.70;98.90
68433;DHT22;55412;51.350;17.056;2023-02-13T01:48:01;5.70;98.60
68433;DHT22;55412;51.350;17.056;2023-02-13T01:50:33;5.70;99.00
68433;DHT22;55412;51.350;17.056;2023-02-13T01:53:21;5.60;99.60
68433;DHT22;55412;51.350;17.056;2023-02-13T01:55:55;5.60;99.90
68433;DHT22;55412;51.350;17.056;2023-02-13T01:58:33;5.60;99.90
68433;DHT22;55412;51.350;17.056;2023-02-13T02:01:01;5.50;99.90
68433;DHT22;55412;51.350;17.056;2023-02-13T02:03:38;5.60;99.90
68433;DHT22;55412;51.350;17.056;2023-02-13T02:06:08;5.60;99.90
68433;DHT22;55412;51.350;17.056;2023-02-13T02:08:38;5.60;99.90
68433;DHT22;55412;51.350;17.056;2023-02-13T02:11:10;5.60;99.90
68433;DHT22;55412;51.350;17.056;2023-02-13T02:13:43;5.70;99.90
68433;DHT22;55412;51.350;17.056;2023-02-13T02:16:10;5.60;99.90
68433;DHT22;55412;51.350;17.056;2023-02-13T02:18:36;5.60;99.90
68433;DHT22;55412;51.350;17.056;2023-02-13T02:32:55;5.70;99.90
68433;DHT22;55412;51.350;17.056;2023-02-13T02:38:56;5.70;99.90
68433;DHT22;55412;51.350;17.056;2023-02-13T02:45:00;5.70;99.90
68433;DHT22;55412;51.350;17.056;2023-02-13T02:51:06;5.70;99.90
68433;DHT22;55412;51.350;17.056;2023-02-13T02:56:37;5.70;99.90
68433;DHT22;55412;51.350;17.056;2023-02-13T02:59:09;5.70;99.90
68433;DHT22;55412;51.350;17.056;2023-02-13T03:01:56;5.70;99.90
68433;DHT22;55412;51.350;17.056;2023-02-13T03:04:50;5.70;99.90
68433;DHT22;55412;51.350;17.056;2023-02-13T03:07:37;5.70;99.90
68433;DHT22;55412;51.350;17.056;2023-02-13T03:10:10;5.70;99.90
68433;DHT22;55412;51.350;17.056;2023-02-13T03:13:09;5.70;99.90
68433;DHT22;55412;51.350;17.056;2023-02-13T03:15:51;5.70;99.90
68433;DHT22;55412;51.350;17.056;2023-02-13T03:18:42;5.70;99.90
68433;DHT22;55412;51.350;17.056;2023-02-13T03:21:53;5.80;99.90
68433;DHT22;55412;51.350;17.056;2023-02-13T03:28:44;5.80;99.90
68433;DHT22;55412;51.350;17.056;2023-02-13T03:31:32;5.80;99.90
68433;DHT22;55412;51.350;17.056;2023-02-13T03:34:04;5.80;99.90
68433;DHT22;55412;51.350;17.056;2023-02-13T03:36:56;5.90;99.90
68433;DHT22;55412;51.350;17.056;2023-02-13T03:43:15;5.90;99.90
68433;DHT22;55412;51.350;17.056;2023-02-13T03:45:45;5.90;99.90
68433;DHT22;55412;51.350;17.056;2023-02-13T03:48:36;5.90;99.90
68433;DHT22;55412;51.350;17.056;2023-02-13T03:51:36;5.90;99.90
68433;DHT22;55412;51.350;17.056;2023-02-13T03:54:25;6.00;99.90
68433;DHT22;55412;51.350;17.056;2023-02-13T03:57:19;6.00;99.90
68433;DHT22;55412;51.350;17.056;2023-02-13T04:00:07;6.00;99.90
68433;DHT22;55412;51.350;17.056;2023-02-13T04:02:41;6.00;99.90
68433;DHT22;55412;51.350;17.056;2023-02-13T04:05:24;6.00;99.90
68433;DHT22;55412;51.350;17.056;2023-02-13T04:07:53;6.00;99.90
68433;DHT22;55412;51.350;17.056;2023-02-13T04:10:19;6.00;99.90
68433;DHT22;55412;51.350;17.056;2023-02-13T04:12:58;6.00;99.90
68433;DHT22;55412;51.350;17.056;2023-02-13T04:15:55;6.00;99.90
68433;DHT22;55412;51.350;17.056;2023-02-13T04:18:25;6.10;99.90
68433;DHT22;55412;51.350;17.056;2023-02-13T04:20:53;6.10;99.90
68433;DHT22;55412;51.350;17.056;2023-02-13T04:23:19;6.00;99.90
68433;DHT22;55412;51.350;17.056;2023-02-13T04:25:48;6.10;99.90
68433;DHT22;55412;51.350;17.056;2023-02-13T04:28:15;6.10;99.90
68433;DHT22;55412;51.350;17.056;2023-02-13T04:30:42;6.00;99.90
68433;DHT22;55412;51.350;17.056;2023-02-13T04:33:08;6.00;99.90
68433;DHT22;55412;51.350;17.056;2023-02-13T04:35:34;6.00;99.90
68433;DHT22;55412;51.350;17.056;2023-02-13T04:38:00;6.10;99.90
68433;DHT22;55412;51.350;17.056;2023-02-13T04:40:26;6.10;99.90
68433;DHT22;55412;51.350;17.056;2023-02-13T04:42:52;6.10;99.90
68433;DHT22;55412;51.350;17.056;2023-02-13T04:45:19;6.10;99.90
68433;DHT22;55412;51.350;17.056;2023-02-13T04:47:55;6.10;99.90
68433;DHT22;55412;51.350;17.056;2023-02-13T04:50:22;6.10;99.90
68433;DHT22;55412;51.350;17.056;2023-02-13T04:52:53;6.00;99.90
68433;DHT22;55412;51.350;17.056;2023-02-13T04:55:22;6.10;99.90
68433;DHT22;55412;51.350;17.056;2023-02-13T04:57:52;6.10;99.90
68433;DHT22;55412;51.350;17.056;2023-02-13T05:00:20;6.10;99.90
68433;DHT22;55412;51.350;17.056;2023-02-13T05:02:47;6.10;99.90
68433;DHT22;55412;51.350;17.056;2023-02-13T05:05:13;6.10;99.90
68433;DHT22;55412;51.350;17.056;2023-02-13T05:07:40;6.10;99.90
68433;DHT22;55412;51.350;17.056;2023-02-13T05:10:08;6.10;99.90
68433;DHT22;55412;51.350;17.056;2023-02-13T05:12:35;6.10;99.90
68433;DHT22;55412;51.350;17.056;2023-02-13T05:15:01;6.10;99.90
68433;DHT22;55412;51.350;17.056;2023-02-13T05:17:28;6.10;99.90
68433;DHT22;55412;51.350;17.056;2023-02-13T05:19:54;6.10;99.90
68433;DHT22;55412;51.350;17.056;2023-02-13T05:22:20;6.10;99.90
68433;DHT22;55412;51.350;17.056;2023-02-13T05:25:04;6.10;99.90
68433;DHT22;55412;51.350;17.056;2023-02-13T05:27:30;6.10;99.90
68433;DHT22;55412;51.350;17.056;2023-02-13T05:29:56;6.10;99.90
68433;DHT22;55412;51.350;17.056;2023-02-13T05:32:22;6.10;99.90
68433;DHT22;55412;51.350;17.056;2023-02-13T05:34:48;6.10;99.90
68433;DHT22;55412;51.350;17.056;2023-02-13T05:37:14;6.10;99.90
68433;DHT22;55412;51.350;17.056;2023-02-13T05:39:40;6.10;99.90
68433;DHT22;55412;51.350;17.056;2023-02-13T05:42:06;6.00;99.90
68433;DHT22;55412;51.350;17.056;2023-02-13T05:44:33;6.00;99.90
68433;DHT22;55412;51.350;17.056;2023-02-13T05:46:59;6.10;99.90
68433;DHT22;55412;51.350;17.056;2023-02-13T05:49:25;6.00;99.90
68433;DHT22;55412;51.350;17.056;2023-02-13T05:51:51;6.00;99.90
68433;DHT22;55412;51.350;17.056;2023-02-13T05:54:17;6.00;99.90
68433;DHT22;55412;51.350;17.056;2023-02-13T05:56:44;6.00;99.90
68433;DHT22;55412;51.350;17.056;2023-02-13T05:59:10;6.00;99.90
68433;DHT22;55412;51.350;17.056;2023-02-13T06:01:36;6.00;99.90
68433;DHT22;55412;51.350;17.056;2023-02-13T06:04:02;6.00;99.90
68433;DHT22;55412;51.350;17.056;2023-02-13T06:06:29;6.00;99.90
68433;DHT22;55412;51.350;17.056;2023-02-13T06:08:55;6.00;99.90
68433;DHT22;55412;51.350;17.056;2023-02-13T06:11:21;6.00;99.90
68433;DHT22;55412;51.350;17.056;2023-02-13T06:13:47;6.00;99.90
68433;DHT22;55412;51.350;17.056;2023-02-13T06:16:13;6.00;99.90
68433;DHT22;55412;51.350;17.056;2023-02-13T06:18:39;6.00;99.90
68433;DHT22;55412;51.350;17.056;2023-02-13T06:21:06;6.00;99.90
68433;DHT22;55412;51.350;17.056;2023-02-13T06:23:32;6.00;99.90
68433;DHT22;55412;51.350;17.056;2023-02-13T06:26:06;6.00;99.90
68433;DHT22;55412;51.350;17.056;2023-02-13T06:28:33;6.00;99.90
68433;DHT22;55412;51.350;17.056;2023-02-13T06:31:00;6.00;99.90
68433;DHT22;55412;51.350;17.056;2023-02-13T06:33:26;6.00;99.90
68433;DHT22;55412;51.350;17.056;2023-02-13T06:35:52;6.00;99.90
68433;DHT22;55412;51.350;17.056;2023-02-13T06:38:18;6.10;99.90
68433;DHT22;55412;51.350;17.056;2023-02-13T06:40:46;6.10;99.90
68433;DHT22;55412;51.350;17.056;2023-02-13T06:43:13;6.00;99.90
68433;DHT22;55412;51.350;17.056;2023-02-13T06:45:40;6.00;99.90
68433;DHT22;55412;51.350;17.056;2023-02-13T06:48:06;6.10;99.90
68433;DHT22;55412;51.350;17.056;2023-02-13T06:50:33;6.00;99.90
68433;DHT22;55412;51.350;17.056;2023-02-13T06:53:01;6.00;99.90
68433;DHT22;55412;51.350;17.056;2023-02-13T06:55:27;6.00;99.90
68433;DHT22;55412;51.350;17.056;2023-02-13T06:57:54;6.10;99.90
68433;DHT22;55412;51.350;17.056;2023-02-13T07:00:20;6.00;99.90
68433;DHT22;55412;51.350;17.056;2023-02-13T07:02:46;6.00;99.90
68433;DHT22;55412;51.350;17.056;2023-02-13T07:05:12;6.10;99.90
68433;DHT22;55412;51.350;17.056;2023-02-13T07:07:40;6.10;99.90
68433;DHT22;55412;51.350;17.056;2023-02-13T07:10:10;6.10;99.90
68433;DHT22;55412;51.350;17.056;2023-02-13T07:12:38;6.10;99.90
68433;DHT22;55412;51.350;17.056;2023-02-13T07:15:05;6.20;99.90
68433;DHT22;55412;51.350;17.056;2023-02-13T07:17:32;6.20;99.90
68433;DHT22;55412;51.350;17.056;2023-02-13T07:19:59;6.20;99.90
68433;DHT22;55412;51.350;17.056;2023-02-13T07:22:25;6.30;99.90
68433;DHT22;55412;51.350;17.056;2023-02-13T07:24:51;6.30;99.90
68433;DHT22;55412;51.350;17.056;2023-02-13T07:27:17;6.30;99.90
68433;DHT22;55412;51.350;17.056;2023-02-13T07:29:43;6.30;99.90
68433;DHT22;55412;51.350;17.056;2023-02-13T07:32:09;6.40;99.90
68433;DHT22;55412;51.350;17.056;2023-02-13T07:34:35;6.40;99.90
68433;DHT22;55412;51.350;17.056;2023-02-13T07:37:01;6.40;99.90
68433;DHT22;55412;51.350;17.056;2023-02-13T07:39:27;6.30;99.90
68433;DHT22;55412;51.350;17.056;2023-02-13T07:41:53;6.30;99.90
68433;DHT22;55412;51.350;17.056;2023-02-13T07:44:19;6.30;99.90
68433;DHT22;55412;51.350;17.056;2023-02-13T07:46:45;6.30;99.90
68433;DHT22;55412;51.350;17.056;2023-02-13T07:49:11;6.40;99.90
68433;DHT22;55412;51.350;17.056;2023-02-13T07:51:37;6.40;99.90
68433;DHT22;55412;51.350;17.056;2023-02-13T07:54:03;6.40;99.90
68433;DHT22;55412;51.350;17.056;2023-02-13T07:56:29;6.40;99.90
68433;DHT22;55412;51.350;17.056;2023-02-13T07:58:56;6.40;99.90
68433;DHT22;55412;51.350;17.056;2023-02-13T08:01:22;6.40;99.90
68433;DHT22;55412;51.350;17.056;2023-02-13T08:03:49;6.40;99.90
68433;DHT22;55412;51.350;17.056;2023-02-13T08:06:16;6.40;99.90
68433;DHT22;55412;51.350;17.056;2023-02-13T08:08:43;6.40;99.90
68433;DHT22;55412;51.350;17.056;2023-02-13T08:11:29;6.50;99.90
68433;DHT22;55412;51.350;17.056;2023-02-13T08:14:14;6.50;99.90
68433;DHT22;55412;51.350;17.056;2023-02-13T08:16:41;6.40;99.90
68433;DHT22;55412;51.350;17.056;2023-02-13T08:19:07;6.50;99.90
68433;DHT22;55412;51.350;17.056;2023-02-13T08:21:33;6.50;99.90
68433;DHT22;55412;51.350;17.056;2023-02-13T08:23:59;6.50;99.90
68433;DHT22;55412;51.350;17.056;2023-02-13T08:26:26;6.50;99.90
68433;DHT22;55412;51.350;17.056;2023-02-13T08:28:52;6.40;99.90
68433;DHT22;55412;51.350;17.056;2023-02-13T08:31:18;6.40;99.90
68433;DHT22;55412;51.350;17.056;2023-02-13T08:33:44;6.40;99.90
68433;DHT22;55412;51.350;17.056;2023-02-13T08:36:10;6.30;99.90
68433;DHT22;55412;51.350;17.056;2023-02-13T08:38:36;6.40;99.90
68433;DHT22;55412;51.350;17.056;2023-02-13T08:41:02;6.30;99.90
68433;DHT22;55412;51.350;17.056;2023-02-13T08:43:28;6.20;99.90
68433;DHT22;55412;51.350;17.056;2023-02-13T08:45:57;6.10;99.90
68433;DHT22;55412;51.350;17.056;2023-02-13T08:48:25;6.00;99.90
68433;DHT22;55412;51.350;17.056;2023-02-13T08:50:51;5.90;99.90
68433;DHT22;55412;51.350;17.056;2023-02-13T08:53:18;5.90;99.90
68433;DHT22;55412;51.350;17.056;2023-02-13T08:55:54;5.90;99.90
68433;DHT22;55412;51.350;17.056;2023-02-13T08:58:21;5.90;99.90
68433;DHT22;55412;51.350;17.056;2023-02-13T09:00:47;5.90;99.90
68433;DHT22;55412;51.350;17.056;2023-02-13T09:03:13;5.90;99.90
68433;DHT22;55412;51.350;17.056;2023-02-13T09:05:40;6.00;99.90
68433;DHT22;55412;51.350;17.056;2023-02-13T09:08:06;6.00;99.90
68433;DHT22;55412;51.350;17.056;2023-02-13T09:10:36;6.10;99.90
68433;DHT22;55412;51.350;17.056;2023-02-13T09:13:03;6.10;99.90
68433;DHT22;55412;51.350;17.056;2023-02-13T09:15:30;6.10;99.90
68433;DHT22;55412;51.350;17.056;2023-02-13T09:17:57;6.20;99.90
68433;DHT22;55412;51.350;17.056;2023-02-13T09:20:23;6.20;99.90
68433;DHT22;55412;51.350;17.056;2023-02-13T09:22:50;6.30;99.90
68433;DHT22;55412;51.350;17.056;2023-02-13T09:25:16;6.40;99.90
68433;DHT22;55412;51.350;17.056;2023-02-13T09:27:44;6.50;99.90
68433;DHT22;55412;51.350;17.056;2023-02-13T09:30:10;6.50;99.90
68433;DHT22;55412;51.350;17.056;2023-02-13T09:32:42;6.60;99.90
68433;DHT22;55412;51.350;17.056;2023-02-13T09:35:08;6.70;99.90
68433;DHT22;55412;51.350;17.056;2023-02-13T09:37:35;6.70;99.90
68433;DHT22;55412;51.350;17.056;2023-02-13T09:40:01;6.70;99.90
68433;DHT22;55412;51.350;17.056;2023-02-13T09:42:30;6.70;99.90
68433;DHT22;55412;51.350;17.056;2023-02-13T09:45:04;6.70;99.90
68433;DHT22;55412;51.350;17.056;2023-02-13T09:47:38;6.60;99.90
68433;DHT22;55412;51.350;17.056;2023-02-13T09:50:20;6.50;99.90
68433;DHT22;55412;51.350;17.056;2023-02-13T09:52:50;6.50;99.90
68433;DHT22;55412;51.350;17.056;2023-02-13T10:01:17;6.50;99.90
68433;DHT22;55412;51.350;17.056;2023-02-13T10:06:32;6.80;99.90
68433;DHT22;55412;51.350;17.056;2023-02-13T10:09:29;7.00;99.90
68433;DHT22;55412;51.350;17.056;2023-02-13T10:15:21;7.10;97.80
68433;DHT22;55412;51.350;17.056;2023-02-13T10:17:57;7.10;95.60
68433;DHT22;55412;51.350;17.056;2023-02-13T10:20:44;7.10;94.40
68433;DHT22;55412;51.350;17.056;2023-02-13T10:26:24;7.00;92.40
68433;DHT22;55412;51.350;17.056;2023-02-13T10:32:08;6.90;91.40
68433;DHT22;55412;51.350;17.056;2023-02-13T10:34:44;6.80;90.80
68433;DHT22;55412;51.350;17.056;2023-02-13T10:37:19;6.70;91.30
68433;DHT22;55412;51.350;17.056;2023-02-13T10:39:51;6.60;89.90
68433;DHT22;55412;51.350;17.056;2023-02-13T10:42:26;6.50;88.40
68433;DHT22;55412;51.350;17.056;2023-02-13T10:48:17;6.40;87.70
68433;DHT22;55412;51.350;17.056;2023-02-13T10:51:12;6.30;88.30
68433;DHT22;55412;51.350;17.056;2023-02-13T10:57:13;6.20;89.70
68433;DHT22;55412;51.350;17.056;2023-02-13T11:00:07;6.20;90.70
68433;DHT22;55412;51.350;17.056;2023-02-13T11:02:43;6.20;89.70
68433;DHT22;55412;51.350;17.056;2023-02-13T11:05:17;6.20;89.90
68433;DHT22;55412;51.350;17.056;2023-02-13T11:07:47;6.20;91.00
68433;DHT22;55412;51.350;17.056;2023-02-13T11:10:18;6.30;91.70
68433;DHT22;55412;51.350;17.056;2023-02-13T11:12:47;6.40;91.70
68433;DHT22;55412;51.350;17.056;2023-02-13T11:17:52;6.80;91.80
68433;DHT22;55412;51.350;17.056;2023-02-13T11:20:34;7.00;92.20
68433;DHT22;55412;51.350;17.056;2023-02-13T11:26:01;7.40;88.50
68433;DHT22;55412;51.350;17.056;2023-02-13T11:28:35;7.40;88.10
68433;DHT22;55412;51.350;17.056;2023-02-13T11:33:40;7.40;89.20
68433;DHT22;55412;51.350;17.056;2023-02-13T11:36:09;7.30;88.10
68433;DHT22;55412;51.350;17.056;2023-02-13T11:38:40;7.10;88.30
68433;DHT22;55412;51.350;17.056;2023-02-13T11:41:11;6.80;88.20
68433;DHT22;55412;51.350;17.056;2023-02-13T11:43:52;6.60;88.30
68433;DHT22;55412;51.350;17.056;2023-02-13T11:46:29;6.50;88.80
68433;DHT22;55412;51.350;17.056;2023-02-13T11:49:19;6.40;90.10
68433;DHT22;55412;51.350;17.056;2023-02-13T11:51:52;6.30;90.40
68433;DHT22;55412;51.350;17.056;2023-02-13T11:54:32;6.20;89.90
68433;DHT22;55412;51.350;17.056;2023-02-13T11:57:30;6.10;90.20
68433;DHT22;55412;51.350;17.056;2023-02-13T11:59:59;6.10;91.00
68433;DHT22;55412;51.350;17.056;2023-02-13T12:02:44;6.10;91.20
68433;DHT22;55412;51.350;17.056;2023-02-13T12:05:24;6.10;90.80
68433;DHT22;55412;51.350;17.056;2023-02-13T12:07:59;6.10;91.40
68433;DHT22;55412;51.350;17.056;2023-02-13T12:10:29;6.10;90.80
68433;DHT22;55412;51.350;17.056;2023-02-13T12:13:29;6.10;90.70
68433;DHT22;55412;51.350;17.056;2023-02-13T12:16:37;6.00;91.80
68433;DHT22;55412;51.350;17.056;2023-02-13T12:19:17;6.00;92.60
68433;DHT22;55412;51.350;17.056;2023-02-13T12:25:26;5.80;93.10
68433;DHT22;55412;51.350;17.056;2023-02-13T12:28:10;5.80;93.10
68433;DHT22;55412;51.350;17.056;2023-02-13T12:33:37;5.80;93.70
68433;DHT22;55412;51.350;17.056;2023-02-13T12:39:08;5.80;93.70
68433;DHT22;55412;51.350;17.056;2023-02-13T12:53:25;5.90;94.00
68433;DHT22;55412;51.350;17.056;2023-02-13T12:59:21;6.00;94.10
68433;DHT22;55412;51.350;17.056;2023-02-13T13:25:35;6.00;91.50
68433;DHT22;55412;51.350;17.056;2023-02-13T13:28:14;6.00;90.70
68433;DHT22;55412;51.350;17.056;2023-02-13T13:30:50;6.10;90.10
68433;DHT22;55412;51.350;17.056;2023-02-13T13:33:20;6.10;88.40
68433;DHT22;55412;51.350;17.056;2023-02-13T13:41:54;6.20;88.70
68433;DHT22;55412;51.350;17.056;2023-02-13T13:51:05;6.10;89.50
68433;DHT22;55412;51.350;17.056;2023-02-13T13:53:31;6.10;90.00
68433;DHT22;55412;51.350;17.056;2023-02-13T13:55:59;6.10;90.00
68433;DHT22;55412;51.350;17.056;2023-02-13T13:58:46;6.10;90.00
68433;DHT22;55412;51.350;17.056;2023-02-13T14:01:29;6.00;89.60
68433;DHT22;55412;51.350;17.056;2023-02-13T14:04:03;6.00;89.40
68433;DHT22;55412;51.350;17.056;2023-02-13T14:07:14;6.00;89.50
68433;DHT22;55412;51.350;17.056;2023-02-13T14:09:45;6.00;89.90
68433;DHT22;55412;51.350;17.056;2023-02-13T14:14:51;6.00;89.80
68433;DHT22;55412;51.350;17.056;2023-02-13T14:20:21;6.00;90.00
68433;DHT22;55412;51.350;17.056;2023-02-13T14:22:54;6.00;89.30
68433;DHT22;55412;51.350;17.056;2023-02-13T14:25:25;6.00;89.40
68433;DHT22;55412;51.350;17.056;2023-02-13T14:28:33;6.00;89.80
68433;DHT22;55412;51.350;17.056;2023-02-13T14:31:21;6.00;89.60
68433;DHT22;55412;51.350;17.056;2023-02-13T14:36:44;5.90;88.90
68433;DHT22;55412;51.350;17.056;2023-02-13T14:39:21;5.90;89.20
68433;DHT22;55412;51.350;17.056;2023-02-13T14:44:26;5.90;88.70
68433;DHT22;55412;51.350;17.056;2023-02-13T14:47:27;5.90;89.00
68433;DHT22;55412;51.350;17.056;2023-02-13T14:49:57;5.90;88.60
68433;DHT22;55412;51.350;17.056;2023-02-13T14:52:31;5.90;88.50
68433;DHT22;55412;51.350;17.056;2023-02-13T15:01:05;5.90;87.60
68433;DHT22;55412;51.350;17.056;2023-02-13T15:07:13;5.80;88.00
68433;DHT22;55412;51.350;17.056;2023-02-13T15:09:54;5.80;88.10
68433;DHT22;55412;51.350;17.056;2023-02-13T15:12:31;5.90;88.50
68433;DHT22;55412;51.350;17.056;2023-02-13T15:15:02;5.90;88.30
68433;DHT22;55412;51.350;17.056;2023-02-13T15:17:49;5.90;88.00
68433;DHT22;55412;51.350;17.056;2023-02-13T15:20:25;5.90;88.50
68433;DHT22;55412;51.350;17.056;2023-02-13T15:22:53;5.90;88.30
68433;DHT22;55412;51.350;17.056;2023-02-13T15:25:33;5.80;88.20
68433;DHT22;55412;51.350;17.056;2023-02-13T15:28:03;5.80;88.70
68433;DHT22;55412;51.350;17.056;2023-02-13T15:30:34;5.80;88.70
68433;DHT22;55412;51.350;17.056;2023-02-13T15:33:20;5.80;88.90
68433;DHT22;55412;51.350;17.056;2023-02-13T15:35:54;5.80;89.00
68433;DHT22;55412;51.350;17.056;2023-02-13T15:38:35;5.70;89.20
68433;DHT22;55412;51.350;17.056;2023-02-13T15:41:10;5.70;89.00
68433;DHT22;55412;51.350;17.056;2023-02-13T15:43:46;5.70;89.20
68433;DHT22;55412;51.350;17.056;2023-02-13T15:46:27;5.70;89.20
68433;DHT22;55412;51.350;17.056;2023-02-13T15:48:57;5.80;88.90
68433;DHT22;55412;51.350;17.056;2023-02-13T15:51:27;5.70;88.90
68433;DHT22;55412;51.350;17.056;2023-02-13T15:54:18;5.70;89.00
68433;DHT22;55412;51.350;17.056;2023-02-13T15:56:47;5.70;89.00
68433;DHT22;55412;51.350;17.056;2023-02-13T15:59:15;5.70;89.10
68433;DHT22;55412;51.350;17.056;2023-02-13T16:01:43;5.70;89.00
68433;DHT22;55412;51.350;17.056;2023-02-13T16:04:13;5.80;89.00
68433;DHT22;55412;51.350;17.056;2023-02-13T16:06:45;5.70;89.00
68433;DHT22;55412;51.350;17.056;2023-02-13T16:12:23;5.70;88.90
68433;DHT22;55412;51.350;17.056;2023-02-13T16:15:01;5.70;88.70
68433;DHT22;55412;51.350;17.056;2023-02-13T16:17:28;5.70;89.10
68433;DHT22;55412;51.350;17.056;2023-02-13T16:20:15;5.70;89.00
68433;DHT22;55412;51.350;17.056;2023-02-13T16:25:35;5.70;88.50
68433;DHT22;55412;51.350;17.056;2023-02-13T16:30:46;5.80;88.60
68433;DHT22;55412;51.350;17.056;2023-02-13T16:33:34;5.80;88.60
68433;DHT22;55412;51.350;17.056;2023-02-13T16:38:38;5.80;88.30
68433;DHT22;55412;51.350;17.056;2023-02-13T16:43:55;5.80;88.60
68433;DHT22;55412;51.350;17.056;2023-02-13T16:57:16;5.80;89.00
68433;DHT22;55412;51.350;17.056;2023-02-13T17:02:31;5.90;88.80
68433;DHT22;55412;51.350;17.056;2023-02-13T17:07:39;6.00;88.40
68433;DHT22;55412;51.350;17.056;2023-02-13T17:10:25;6.00;88.00
68433;DHT22;55412;51.350;17.056;2023-02-13T17:12:57;6.10;88.00
68433;DHT22;55412;51.350;17.056;2023-02-13T17:15:30;6.10;87.80
68433;DHT22;55412;51.350;17.056;2023-02-13T17:17:56;6.10;87.50
68433;DHT22;55412;51.350;17.056;2023-02-13T17:20:26;6.10;87.20
68433;DHT22;55412;51.350;17.056;2023-02-13T17:22:55;6.10;87.00
68433;DHT22;55412;51.350;17.056;2023-02-13T17:25:31;6.10;87.40
68433;DHT22;55412;51.350;17.056;2023-02-13T17:28:00;6.10;87.20
68433;DHT22;55412;51.350;17.056;2023-02-13T17:30:35;6.10;87.20
68433;DHT22;55412;51.350;17.056;2023-02-13T17:33:06;6.00;87.30
68433;DHT22;55412;51.350;17.056;2023-02-13T17:35:36;6.00;87.60
68433;DHT22;55412;51.350;17.056;2023-02-13T17:38:02;6.00;87.50
68433;DHT22;55412;51.350;17.056;2023-02-13T17:40:29;5.90;87.50
68433;DHT22;55412;51.350;17.056;2023-02-13T17:42:57;5.90;88.10
68433;DHT22;55412;51.350;17.056;2023-02-13T17:45:26;5.90;88.50
68433;DHT22;55412;51.350;17.056;2023-02-13T17:47:54;5.90;88.50
68433;DHT22;55412;51.350;17.056;2023-02-13T17:50:23;6.00;88.40
68433;DHT22;55412;51.350;17.056;2023-02-13T17:52:50;5.90;88.60
68433;DHT22;55412;51.350;17.056;2023-02-13T17:55:27;5.90;89.00
68433;DHT22;55412;51.350;17.056;2023-02-13T17:57:56;6.00;89.10
68433;DHT22;55412;51.350;17.056;2023-02-13T18:00:25;6.00;89.10
68433;DHT22;55412;51.350;17.056;2023-02-13T18:02:54;6.00;89.00
68433;DHT22;55412;51.350;17.056;2023-02-13T18:05:20;6.10;88.90
68433;DHT22;55412;51.350;17.056;2023-02-13T18:07:47;6.10;88.90
68433;DHT22;55412;51.350;17.056;2023-02-13T18:10:16;6.10;88.40
68433;DHT22;55412;51.350;17.056;2023-02-13T18:12:43;6.00;88.70
68433;DHT22;55412;51.350;17.056;2023-02-13T18:15:10;6.00;89.10
68433;DHT22;55412;51.350;17.056;2023-02-13T18:17:37;6.00;88.90
68433;DHT22;55412;51.350;17.056;2023-02-13T18:20:05;6.00;89.20
68433;DHT22;55412;51.350;17.056;2023-02-13T18:22:33;6.00;89.50
68433;DHT22;55412;51.350;17.056;2023-02-13T18:25:00;6.00;89.60
68433;DHT22;55412;51.350;17.056;2023-02-13T18:27:27;6.00;89.60
68433;DHT22;55412;51.350;17.056;2023-02-13T18:29:55;5.90;89.50
68433;DHT22;55412;51.350;17.056;2023-02-13T18:32:22;5.90;89.90
68433;DHT22;55412;51.350;17.056;2023-02-13T18:34:49;5.90;89.90
68433;DHT22;55412;51.350;17.056;2023-02-13T18:37:16;5.80;90.30
68433;DHT22;55412;51.350;17.056;2023-02-13T18:39:43;5.90;90.50
68433;DHT22;55412;51.350;17.056;2023-02-13T18:42:10;5.80;90.50
68433;DHT22;55412;51.350;17.056;2023-02-13T18:44:38;5.80;90.70
68433;DHT22;55412;51.350;17.056;2023-02-13T18:47:05;5.70;91.20
68433;DHT22;55412;51.350;17.056;2023-02-13T18:49:31;5.70;91.50
68433;DHT22;55412;51.350;17.056;2023-02-13T18:51:57;5.60;92.20
68433;DHT22;55412;51.350;17.056;2023-02-13T18:54:23;5.60;92.70
68433;DHT22;55412;51.350;17.056;2023-02-13T18:56:49;5.60;92.80